createdAt,value
2022-08-16T00:00:38.401Z,0.10
2022-08-16T00:03:13.536Z,0.20
2022-08-16T00:05:48.266Z,0.20
2022-08-16T00:08:35.804Z,0.13
2022-08-16T00:11:07.549Z,0.20
2022-08-16T00:13:41.453Z,0.10
2022-08-16T00:17:06.638Z,0.20
2022-08-16T00:19:05.271Z,0.20
2022-08-16T00:21:38.166Z,0.20
2022-08-16T00:24:11.613Z,0.20
2022-08-16T00:32:01.335Z,0.20
2022-08-16T00:34:43.358Z,0.20
2022-08-16T00:37:56.195Z,0.20
2022-08-16T00:40:36.510Z,0.20
2022-08-16T00:43:19.078Z,0.20
2022-08-16T00:46:00.264Z,0.20
2022-08-16T00:48:43.782Z,0.20
2022-08-16T00:51:18.401Z,0.20
2022-08-16T00:53:52.211Z,0.20
2022-08-16T00:56:58.119Z,0.20
2022-08-16T00:59:18.609Z,0.20
2022-08-16T01:01:49.471Z,0.20
2022-08-16T01:04:30.017Z,0.20
2022-08-16T01:07:03.020Z,0.20
2022-08-16T01:09:38.917Z,0.20
2022-08-16T01:12:21.761Z,0.20
2022-08-16T01:15:01.449Z,0.20
2022-08-16T01:17:36.892Z,0.20
2022-08-16T01:20:24.416Z,0.20
2022-08-16T01:23:08.488Z,0.20
2022-08-16T01:26:00.123Z,0.20
2022-08-16T01:28:46.830Z,0.20
2022-08-16T01:31:19.722Z,0.20
2022-08-16T01:33:50.506Z,0.23
2022-08-16T01:36:20.725Z,0.20
2022-08-16T01:38:57.494Z,0.20
2022-08-16T01:41:32.683Z,0.20
2022-08-16T01:44:13.241Z,0.20
2022-08-16T02:04:48.893Z,0.20
2022-08-16T02:07:24.417Z,0.20
2022-08-16T02:09:58.576Z,0.20
2022-08-16T02:12:49.440Z,0.20
2022-08-16T02:15:25.809Z,0.20
2022-08-16T02:17:56.340Z,0.20
2022-08-16T02:20:27.864Z,0.20
2022-08-16T02:22:58.608Z,0.30
2022-08-16T02:25:50.800Z,0.20
2022-08-16T02:28:23.609Z,0.20
2022-08-16T02:30:54.133Z,0.30
2022-08-16T02:33:43.521Z,0.20
2022-08-16T02:36:42.495Z,0.30
2022-08-16T02:39:07.758Z,0.27
2022-08-16T02:41:39.626Z,0.30
2022-08-16T02:44:13.685Z,0.20
2022-08-16T02:46:50.344Z,0.20
2022-08-16T02:49:21.111Z,0.30
2022-08-16T02:51:52.249Z,0.20
2022-08-16T02:54:23.932Z,0.20
2022-08-16T02:56:54.028Z,0.20
2022-08-16T02:59:25.697Z,0.20
2022-08-16T03:02:10.999Z,0.30
2022-08-16T03:04:52.541Z,0.20
2022-08-16T03:07:27.647Z,0.30
2022-08-16T03:10:00.282Z,0.20
2022-08-16T03:12:36.661Z,0.23
2022-08-16T03:15:12.023Z,0.20
2022-08-16T03:17:53.040Z,0.20
2022-08-16T03:20:32.562Z,0.20
2022-08-16T03:23:03.223Z,0.20
2022-08-16T03:25:43.249Z,0.20
2022-08-16T03:28:17.293Z,0.20
2022-08-16T03:30:49.714Z,0.20
2022-08-16T03:33:20.533Z,0.20
2022-08-16T03:35:51.045Z,0.20
2022-08-16T03:38:34.142Z,0.20
2022-08-16T03:41:17.090Z,0.20
2022-08-16T03:43:56.610Z,0.23
2022-08-16T03:46:47.196Z,0.23
2022-08-16T03:49:22.384Z,0.20
2022-08-16T03:51:52.896Z,0.30
2022-08-16T03:54:23.333Z,0.30
2022-08-16T03:56:56.695Z,0.20
2022-08-16T03:59:29.608Z,0.20
2022-08-16T04:02:02.797Z,0.30
2022-08-16T04:04:36.654Z,0.30
2022-08-16T04:07:08.486Z,0.20
2022-08-16T04:09:38.941Z,0.20
2022-08-16T04:12:10.883Z,0.20
2022-08-16T04:14:46.349Z,0.20
2022-08-16T04:17:19.091Z,0.30
2022-08-16T04:19:51.696Z,0.20
2022-08-16T04:22:27.652Z,0.20
2022-08-16T04:24:59.414Z,0.20
2022-08-16T04:27:31.807Z,0.20
2022-08-16T04:30:02.887Z,0.20
2022-08-16T04:32:36.207Z,0.20
2022-08-16T04:35:12.346Z,0.20
2022-08-16T04:37:46.374Z,0.20
2022-08-16T04:40:20.569Z,0.20
2022-08-16T04:42:55.352Z,0.30
2022-08-16T04:45:36.340Z,0.20
2022-08-16T04:48:09.356Z,0.20
2022-08-16T04:50:43.449Z,0.30
2022-08-16T04:53:15.856Z,0.20
2022-08-16T04:55:46.756Z,0.30
2022-08-16T04:58:44.741Z,0.20
2022-08-16T05:01:15.136Z,0.23
2022-08-16T05:03:59.959Z,0.23
2022-08-16T05:06:44.944Z,0.20
2022-08-16T05:09:16.309Z,0.30
2022-08-16T05:11:46.827Z,0.30
2022-08-16T05:14:20.313Z,0.30
2022-08-16T05:17:10.160Z,0.30
2022-08-16T05:19:46.787Z,0.20
2022-08-16T05:22:28.414Z,0.23
2022-08-16T05:24:58.855Z,0.30
2022-08-16T05:27:29.293Z,0.20
2022-08-16T05:30:04.852Z,0.30
2022-08-16T05:32:50.349Z,0.20
2022-08-16T05:35:24.562Z,0.20
2022-08-16T05:37:54.818Z,0.23
2022-08-16T05:40:26.259Z,0.23
2022-08-16T05:42:56.700Z,0.20
2022-08-16T05:45:27.237Z,0.20
2022-08-16T05:47:59.426Z,0.30
2022-08-16T05:50:34.314Z,0.30
2022-08-16T05:53:05.236Z,0.30
2022-08-16T05:55:40.830Z,0.20
2022-08-16T05:58:31.805Z,0.30
2022-08-16T06:01:01.785Z,0.30
2022-08-16T06:03:34.880Z,0.23
2022-08-16T06:06:08.525Z,0.20
2022-08-16T06:08:42.034Z,0.20
2022-08-16T06:11:15.039Z,0.30
2022-08-16T06:13:47.955Z,0.20
2022-08-16T06:16:20.176Z,0.30
2022-08-16T06:18:50.417Z,0.30
2022-08-16T06:21:23.937Z,0.20
2022-08-16T06:23:54.548Z,0.20
2022-08-16T06:26:36.538Z,0.20
2022-08-16T06:29:08.395Z,0.30
2022-08-16T06:31:46.688Z,0.23
2022-08-16T06:34:55.032Z,0.20
2022-08-16T06:37:11.105Z,0.20
2022-08-16T06:39:49.259Z,0.20
2022-08-16T06:42:20.714Z,0.20
2022-08-16T06:44:51.162Z,0.30
2022-08-16T06:47:21.499Z,0.30
2022-08-16T06:49:53.960Z,0.20
2022-08-16T06:52:58.047Z,0.30
2022-08-16T06:55:17.928Z,0.30
2022-08-16T06:57:47.965Z,0.30
2022-08-16T07:00:24.169Z,0.30
2022-08-16T07:02:55.868Z,0.20
2022-08-16T07:05:27.334Z,0.20
2022-08-16T07:08:13.623Z,0.30
2022-08-16T07:10:44.000Z,0.20
2022-08-16T07:13:26.567Z,0.20
2022-08-16T07:16:06.493Z,0.20
2022-08-16T07:18:37.667Z,0.20
2022-08-16T07:21:45.766Z,0.30
2022-08-16T07:24:30.445Z,0.30
2022-08-16T07:27:01.130Z,0.20
2022-08-16T07:29:32.120Z,0.20
2022-08-16T07:32:02.881Z,0.20
2022-08-16T07:34:34.949Z,0.30
2022-08-16T07:37:09.563Z,0.30
2022-08-16T07:39:43.461Z,0.30
2022-08-16T07:42:20.413Z,0.30
2022-08-16T07:44:58.971Z,0.27
2022-08-16T07:47:31.581Z,0.30
2022-08-16T07:50:05.520Z,0.30
2022-08-16T07:52:38.655Z,0.20
2022-08-16T07:55:12.496Z,0.20
2022-08-16T07:57:58.042Z,0.30
2022-08-16T08:00:32.793Z,0.30
2022-08-16T08:03:04.131Z,0.20
2022-08-16T08:05:35.740Z,0.30
2022-08-16T08:08:11.886Z,0.30
2022-08-16T08:11:02.021Z,0.30
2022-08-16T08:13:42.206Z,0.20
2022-08-16T08:16:18.431Z,0.30
2022-08-16T08:18:55.890Z,0.30
2022-08-16T08:21:48.741Z,0.30
2022-08-16T08:24:17.317Z,0.30
2022-08-16T08:26:50.636Z,0.30
2022-08-16T08:29:22.558Z,0.30
2022-08-16T08:31:55.025Z,0.20
2022-08-16T08:34:26.684Z,0.30
2022-08-16T08:36:57.707Z,0.20
2022-08-16T08:39:28.044Z,0.30
2022-08-16T08:42:00.086Z,0.20
2022-08-16T08:44:34.941Z,0.30
2022-08-16T08:47:11.057Z,0.30
2022-08-16T08:49:50.452Z,0.30
2022-08-16T08:52:35.337Z,0.30
2022-08-16T08:55:09.498Z,0.30
2022-08-16T08:57:44.643Z,0.30
2022-08-16T09:00:21.257Z,0.20
2022-08-16T09:02:52.540Z,0.30
2022-08-16T09:05:36.069Z,0.30
2022-08-16T09:08:09.092Z,0.30
2022-08-16T09:10:40.911Z,0.30
2022-08-16T09:13:13.133Z,0.30
2022-08-16T09:15:44.814Z,0.30
2022-08-16T09:18:25.105Z,0.30
2022-08-16T09:21:00.141Z,0.30
2022-08-16T09:23:36.253Z,0.30
2022-08-16T09:26:44.115Z,0.30
2022-08-16T09:29:15.019Z,0.40
2022-08-16T09:31:47.269Z,0.40
2022-08-16T09:34:23.788Z,0.30
2022-08-16T09:37:00.294Z,0.30
2022-08-16T09:39:42.147Z,0.27
2022-08-16T09:42:14.970Z,0.30
2022-08-16T09:45:12.406Z,0.40
2022-08-16T09:47:56.555Z,0.30
2022-08-16T09:50:36.889Z,0.30
2022-08-16T09:53:14.999Z,0.30
2022-08-16T09:55:50.149Z,0.33
2022-08-16T09:58:37.643Z,0.30
2022-08-16T10:01:12.523Z,0.40
2022-08-16T10:04:02.014Z,0.37
2022-08-16T10:06:34.254Z,0.30
2022-08-16T10:09:06.824Z,0.30
2022-08-16T10:11:55.935Z,0.40
2022-08-16T10:14:45.849Z,0.30
2022-08-16T10:17:18.323Z,0.40
2022-08-16T10:19:50.273Z,0.40
2022-08-16T10:22:22.963Z,0.37
2022-08-16T10:24:56.166Z,0.40
2022-08-16T10:27:47.383Z,0.40
2022-08-16T10:30:25.033Z,0.30
2022-08-16T10:32:57.184Z,0.40
2022-08-16T10:35:32.743Z,0.30
2022-08-16T10:38:06.613Z,0.30
2022-08-16T10:40:37.335Z,0.30
2022-08-16T10:43:08.249Z,0.30
2022-08-16T10:46:00.595Z,0.30
2022-08-16T10:48:33.152Z,0.40
2022-08-16T10:51:03.524Z,0.37
2022-08-16T10:53:36.760Z,0.40
2022-08-16T10:56:54.276Z,0.30
2022-08-16T11:08:05.431Z,0.30
2022-08-16T11:19:05.663Z,0.30
2022-08-16T11:24:39.404Z,0.30
2022-08-16T11:27:20.178Z,0.30
2022-08-16T11:29:52.821Z,0.30
2022-08-16T11:32:32.530Z,0.40
2022-08-16T11:35:10.923Z,0.30
2022-08-16T11:40:40.842Z,0.27
2022-08-16T11:43:16.697Z,0.30
2022-08-16T16:33:43.328Z,0.10
2022-08-16T16:36:15.853Z,0.10
2022-08-16T16:38:49.573Z,0.10
2022-08-16T16:41:23.471Z,0.10
2022-08-16T16:43:54.761Z,0.10
2022-08-16T16:46:42.007Z,0.10
2022-08-16T16:49:17.100Z,0.10
2022-08-16T16:51:50.260Z,0.10
2022-08-16T16:54:27.550Z,0.10
2022-08-16T16:56:59.889Z,0.10
2022-08-16T16:59:28.864Z,0.10
2022-08-16T17:07:24.220Z,0.00
2022-08-16T17:12:46.428Z,0.00
2022-08-16T17:15:16.342Z,0.10
2022-08-16T17:17:59.063Z,0.00
2022-08-16T17:20:32.020Z,0.08
2022-08-16T17:23:02.481Z,0.00
2022-08-16T17:25:36.786Z,0.03
2022-08-16T17:31:01.614Z,0.10
2022-08-16T17:33:37.386Z,0.00
2022-08-16T17:36:36.367Z,0.00
2022-08-16T17:39:08.493Z,0.00
2022-08-16T17:41:40.497Z,0.00
2022-08-16T17:44:11.207Z,0.00
2022-08-16T17:46:51.131Z,0.00
2022-08-16T17:49:23.099Z,0.03
2022-08-16T17:51:55.207Z,0.00
2022-08-16T17:54:30.114Z,0.00
2022-08-16T17:57:04.378Z,0.03
2022-08-16T17:59:41.559Z,0.10
2022-08-16T18:02:42.936Z,0.00
2022-08-16T18:05:03.578Z,0.03
2022-08-16T18:07:36.395Z,0.00
2022-08-16T18:10:08.277Z,0.03
2022-08-16T18:12:54.484Z,0.00
2022-08-16T18:15:27.314Z,0.00
2022-08-16T18:17:57.917Z,0.10
2022-08-16T18:20:45.342Z,0.00
2022-08-16T18:23:21.164Z,0.05
2022-08-16T18:25:54.194Z,0.00
2022-08-16T18:28:25.888Z,0.00
2022-08-16T18:31:00.784Z,0.00
2022-08-16T18:33:32.339Z,0.00
2022-08-16T18:36:20.042Z,0.00
2022-08-16T18:38:54.574Z,0.00
2022-08-16T18:41:27.242Z,0.00
2022-08-16T18:44:26.391Z,0.00
2022-08-16T18:46:51.216Z,0.00
2022-08-16T18:49:21.861Z,0.00
2022-08-16T18:51:51.921Z,0.10
2022-08-16T18:54:25.191Z,0.00
2022-08-16T18:56:57.915Z,0.10
2022-08-16T18:59:30.572Z,0.10
2022-08-16T19:02:05.009Z,0.00
2022-08-16T19:04:54.851Z,0.00
2022-08-16T19:07:30.934Z,0.00
2022-08-16T19:10:04.505Z,0.00
2022-08-16T19:12:38.765Z,0.00
2022-08-16T19:15:15.910Z,0.00
2022-08-16T19:17:46.587Z,0.10
2022-08-16T19:20:19.339Z,0.10
2022-08-16T19:23:10.390Z,0.10
2022-08-16T19:25:49.433Z,0.00
2022-08-16T19:28:49.168Z,0.10
2022-08-16T19:31:17.003Z,0.00
2022-08-16T19:33:53.895Z,0.10
2022-08-16T19:36:31.662Z,0.03
2022-08-16T19:39:09.028Z,0.00
2022-08-16T19:41:42.859Z,0.08
2022-08-16T19:44:13.779Z,0.10
2022-08-16T19:46:45.565Z,0.10
2022-08-16T19:49:16.771Z,0.00
2022-08-16T19:51:47.241Z,0.10
2022-08-16T19:54:18.148Z,0.00
2022-08-16T19:56:49.836Z,0.10
2022-08-16T19:59:22.443Z,0.10
2022-08-16T20:02:35.837Z,0.00
2022-08-16T20:05:08.296Z,0.10
2022-08-16T20:07:38.985Z,0.10
2022-08-16T20:10:13.701Z,0.10
2022-08-16T20:13:01.694Z,0.10
2022-08-16T20:15:34.391Z,0.10
2022-08-16T20:18:21.563Z,0.10
2022-08-16T20:20:56.819Z,0.10
2022-08-16T20:23:28.833Z,0.00
2022-08-16T20:25:59.690Z,0.10
2022-08-16T20:28:39.379Z,0.00
2022-08-16T20:31:21.975Z,0.00
2022-08-16T20:33:52.298Z,0.10
2022-08-16T20:36:22.341Z,0.10
2022-08-16T20:38:53.557Z,0.10
2022-08-16T20:41:24.030Z,0.10
2022-08-16T20:43:56.472Z,0.10
2022-08-16T20:46:26.532Z,0.10
2022-08-16T20:48:56.718Z,0.00
2022-08-16T20:51:26.776Z,0.10
2022-08-16T20:53:56.866Z,0.10
2022-08-16T20:56:27.186Z,0.10
2022-08-16T20:58:59.014Z,0.10
2022-08-16T21:01:45.767Z,0.00
2022-08-16T21:04:18.331Z,0.00
2022-08-16T21:06:54.226Z,0.00
2022-08-16T21:09:27.124Z,0.10
2022-08-16T21:11:59.533Z,0.00
2022-08-16T21:14:35.374Z,0.10
2022-08-16T21:17:06.668Z,0.00
2022-08-16T22:49:00.723Z,0.10
2022-08-16T22:51:31.170Z,0.10
2022-08-16T22:54:41.433Z,0.10
2022-08-16T22:56:53.208Z,0.10
2022-08-16T22:59:25.645Z,0.10
2022-08-16T23:01:57.481Z,0.17
2022-08-16T23:04:27.568Z,0.10
2022-08-16T23:06:57.811Z,0.10
2022-08-16T23:09:28.064Z,0.10
2022-08-16T23:11:58.122Z,0.10
2022-08-16T23:14:28.352Z,0.10
2022-08-16T23:17:00.386Z,0.10
2022-08-16T23:19:30.612Z,0.10
2022-08-16T23:22:01.583Z,0.20
2022-08-16T23:24:37.116Z,0.10
2022-08-16T23:27:22.199Z,0.10
2022-08-16T23:29:53.434Z,0.10
2022-08-16T23:32:25.313Z,0.10
2022-08-16T23:34:55.528Z,0.10
2022-08-16T23:37:28.415Z,0.10
2022-08-16T23:39:58.641Z,0.20
2022-08-16T23:42:52.945Z,0.10
2022-08-16T23:45:21.222Z,0.20
2022-08-16T23:47:53.192Z,0.17
2022-08-16T23:50:23.544Z,0.13
2022-08-16T23:53:02.884Z,0.20
2022-08-16T23:55:35.961Z,0.10
2022-08-16T23:58:06.698Z,0.20
